Decoded Metar for KLQK ( in ) (IATA:) | Meteo·Mobile Aviation Weather
aviador You're here:

KLQK Decoded Metar

in
Report Time2019-04-21 00:15:00
UTC Time2019-04-21 00:16:10
Flight Rules vfr VFR
Wind240° at 06 kt
W.Decomp.*RWY 23: 5.9 kt HW 1.0 kt RCW
Visibility9999 m
Phenomena:N/A
Clouds:Scattered 065 Hf
Expected CloudBase > 1,600 ft AGL from Temp-Dew spread
CeilingNone
Temp09°C
Dew Point05°C (76% RH)
AAT5.7°C
QNH1009 hPa
Raw Report
KLQK 210015Z AUTO 24006KT 10SM SCT065 09/05 A2981 RMK AO2
T00900053=

Extra information for KLQK:More info

Social comments